createdAt,value
2023-05-15T00:00:16.508Z,5
2023-05-15T00:04:13.252Z,5
2023-05-15T00:06:13.778Z,5
2023-05-15T00:08:13.390Z,5
2023-05-15T00:10:14.175Z,5
2023-05-15T00:14:13.877Z,5
2023-05-15T00:16:13.609Z,5
2023-05-15T00:18:13.303Z,5
2023-05-15T00:20:13.671Z,5
2023-05-15T00:22:13.420Z,5
2023-05-15T00:24:13.944Z,5
2023-05-15T00:26:13.520Z,5
2023-05-15T00:28:12.979Z,5
2023-05-15T00:30:13.624Z,7
2023-05-15T00:32:13.078Z,7
2023-05-15T00:34:13.549Z,7
2023-05-15T00:36:13.137Z,5
2023-05-15T00:38:13.736Z,5
2023-05-15T00:40:13.563Z,5
2023-05-15T00:42:13.964Z,5
2023-05-15T00:44:13.759Z,5
2023-05-15T00:46:13.286Z,5
2023-05-15T00:48:14.062Z,5
2023-05-15T00:50:13.797Z,5
2023-05-15T00:52:13.502Z,5
2023-05-15T00:54:14.043Z,5
2023-05-15T00:56:13.266Z,5
2023-05-15T00:58:13.940Z,5
2023-05-15T01:00:19.902Z,5
2023-05-15T01:04:13.962Z,5
2023-05-15T01:06:13.276Z,5
2023-05-15T01:08:13.871Z,5
2023-05-15T01:10:13.597Z,5
2023-05-15T01:12:14.003Z,4
2023-05-15T01:14:13.637Z,4
2023-05-15T01:16:13.328Z,4
2023-05-15T01:18:14.089Z,5
2023-05-15T01:20:13.692Z,5
2023-05-15T01:22:13.203Z,5
2023-05-15T01:24:13.720Z,4
2023-05-15T01:26:13.163Z,4
2023-05-15T01:28:13.905Z,4
2023-05-15T01:30:13.509Z,5
2023-05-15T01:32:13.185Z,5
2023-05-15T01:34:13.729Z,5
2023-05-15T01:36:13.295Z,4
2023-05-15T01:38:13.855Z,4
2023-05-15T01:40:13.633Z,4
2023-05-15T01:42:13.158Z,5
2023-05-15T01:44:13.580Z,5
2023-05-15T01:46:13.326Z,5
2023-05-15T01:48:13.895Z,4
2023-05-15T01:50:13.759Z,4
2023-05-15T01:52:13.048Z,4
2023-05-15T01:54:13.698Z,5
2023-05-15T01:56:13.131Z,5
2023-05-15T01:58:13.649Z,5
2023-05-15T02:00:17.279Z,5
2023-05-15T02:04:13.707Z,5
2023-05-15T02:06:13.100Z,4
2023-05-15T02:08:13.061Z,4
2023-05-15T02:10:13.896Z,4
2023-05-15T02:12:13.224Z,4
2023-05-15T02:14:13.942Z,4
2023-05-15T02:16:13.636Z,4
2023-05-15T02:18:13.195Z,5
2023-05-15T02:20:13.796Z,5
2023-05-15T02:22:13.287Z,5
2023-05-15T02:24:12.978Z,5
2023-05-15T02:26:13.572Z,5
2023-05-15T02:28:13.197Z,5
2023-05-15T02:30:13.866Z,4
2023-05-15T02:32:13.668Z,4
2023-05-15T02:34:13.025Z,4
2023-05-15T02:36:13.434Z,5
2023-05-15T02:38:13.044Z,5
2023-05-15T02:40:13.955Z,5
2023-05-15T02:42:13.378Z,4
2023-05-15T02:44:13.926Z,4
2023-05-15T02:46:13.524Z,4
2023-05-15T02:48:14.013Z,4
2023-05-15T02:50:13.721Z,4
2023-05-15T02:52:13.273Z,4
2023-05-15T02:54:13.690Z,5
2023-05-15T02:56:13.325Z,5
2023-05-15T02:58:13.767Z,5
2023-05-15T03:00:17.254Z,6
2023-05-15T03:04:13.651Z,6
2023-05-15T03:06:13.255Z,3
2023-05-15T03:08:13.642Z,3
2023-05-15T03:10:13.521Z,3
2023-05-15T03:12:13.068Z,5
2023-05-15T03:14:13.563Z,5
2023-05-15T03:16:13.136Z,5
2023-05-15T03:18:14.497Z,6
2023-05-15T03:22:13.771Z,6
2023-05-15T03:26:13.042Z,4
2023-05-15T03:28:13.610Z,4
2023-05-15T03:30:13.335Z,7
2023-05-15T03:32:13.823Z,7
2023-05-15T03:34:13.502Z,7
2023-05-15T03:36:12.986Z,4
2023-05-15T03:38:13.613Z,4
2023-05-15T03:40:13.486Z,4
2023-05-15T03:44:13.320Z,4
2023-05-15T03:46:14.041Z,4
2023-05-15T03:48:13.548Z,5
2023-05-15T03:50:14.050Z,5
2023-05-15T03:52:13.576Z,5
2023-05-15T03:54:13.886Z,6
2023-05-15T03:56:13.588Z,6
2023-05-15T03:58:13.087Z,6
2023-05-15T04:00:19.249Z,5
2023-05-15T04:02:17.263Z,5
2023-05-15T04:04:13.359Z,5
2023-05-15T04:06:13.733Z,4
2023-05-15T04:08:13.300Z,4
2023-05-15T04:10:14.189Z,4
2023-05-15T04:12:13.671Z,4
2023-05-15T04:14:13.219Z,4
2023-05-15T04:16:13.935Z,4
2023-05-15T04:18:13.476Z,6
2023-05-15T04:20:13.166Z,6
2023-05-15T04:22:13.817Z,6
2023-05-15T04:24:13.291Z,4
2023-05-15T04:26:13.867Z,4
2023-05-15T04:28:13.487Z,4
2023-05-15T04:32:13.585Z,6
2023-05-15T04:34:13.021Z,6
2023-05-15T04:36:13.842Z,6
2023-05-15T04:38:13.335Z,6
2023-05-15T04:40:13.252Z,6
2023-05-15T04:42:13.723Z,4
2023-05-15T04:46:13.858Z,4
2023-05-15T04:48:13.610Z,4
2023-05-15T04:50:13.251Z,4
2023-05-15T04:52:13.711Z,4
2023-05-15T04:54:13.306Z,3
2023-05-15T04:56:13.754Z,3
2023-05-15T04:58:13.446Z,3
2023-05-15T05:00:13.157Z,3
2023-05-15T05:02:13.929Z,3
2023-05-15T05:04:13.405Z,3
2023-05-15T05:06:13.803Z,3
2023-05-15T05:08:13.437Z,3
2023-05-15T05:10:13.379Z,3
2023-05-15T05:12:13.792Z,3
2023-05-15T05:16:13.998Z,3
2023-05-15T05:18:13.612Z,3
2023-05-15T05:20:14.265Z,4
2023-05-15T05:22:13.691Z,4
2023-05-15T05:24:13.149Z,4
2023-05-15T05:26:16.150Z,6
2023-05-15T05:30:13.711Z,6
2023-05-15T05:32:13.278Z,4
2023-05-15T05:34:13.845Z,4
2023-05-15T05:36:13.357Z,4
2023-05-15T05:38:13.697Z,4
2023-05-15T05:40:13.564Z,4
2023-05-15T05:42:13.815Z,4
2023-05-15T05:44:13.441Z,4
2023-05-15T05:46:13.237Z,4
2023-05-15T05:48:14.013Z,4
2023-05-15T05:50:13.494Z,6
2023-05-15T05:52:13.850Z,6
2023-05-15T05:54:13.553Z,6
2023-05-15T05:56:13.815Z,6
2023-05-15T05:58:25.000Z,6
2023-05-15T06:00:16.916Z,6
2023-05-15T06:04:15.141Z,4
2023-05-15T06:08:13.069Z,6
2023-05-15T06:10:13.850Z,6
2023-05-15T06:12:13.397Z,6
2023-05-15T06:14:13.795Z,4
2023-05-15T06:16:13.282Z,4
2023-05-15T06:18:14.154Z,4
2023-05-15T06:20:13.493Z,7
2023-05-15T06:22:13.117Z,7
2023-05-15T06:26:13.281Z,3
2023-05-15T06:28:13.845Z,3
2023-05-15T06:30:13.776Z,3
2023-05-15T06:32:12.998Z,6
2023-05-15T06:34:13.617Z,6
2023-05-15T06:36:13.077Z,6
2023-05-15T06:38:13.589Z,6
2023-05-15T06:40:14.138Z,6
2023-05-15T06:42:13.647Z,6
2023-05-15T06:44:13.988Z,5
2023-05-15T06:46:13.644Z,5
2023-05-15T06:50:13.954Z,4
2023-05-15T06:52:13.255Z,4
2023-05-15T06:56:13.014Z,4
2023-05-15T06:58:13.592Z,4
2023-05-15T07:00:16.529Z,4
2023-05-15T07:02:14.236Z,6
2023-05-15T07:04:13.374Z,6
2023-05-15T07:06:13.760Z,6
2023-05-15T07:08:13.362Z,6
2023-05-15T07:10:14.046Z,6
2023-05-15T07:12:13.355Z,6
2023-05-15T07:14:13.777Z,4
2023-05-15T07:16:13.417Z,4
2023-05-15T07:18:14.440Z,4
2023-05-15T07:20:13.702Z,6
2023-05-15T07:22:13.933Z,6
2023-05-15T07:26:23.425Z,6
2023-05-15T07:28:12.950Z,6
2023-05-15T07:30:13.918Z,6
2023-05-15T07:34:13.947Z,7
2023-05-15T07:36:13.571Z,7
2023-05-15T07:38:13.164Z,6
2023-05-15T07:40:13.896Z,6
2023-05-15T07:42:13.296Z,6
2023-05-15T07:44:13.818Z,6
2023-05-15T07:46:13.619Z,6
2023-05-15T07:48:13.931Z,6
2023-05-15T07:50:13.908Z,6
2023-05-15T07:52:13.245Z,6
2023-05-15T07:54:12.967Z,6
2023-05-15T07:56:13.480Z,6
2023-05-15T07:58:13.153Z,6
2023-05-15T08:00:17.275Z,6
2023-05-15T08:04:13.621Z,6
2023-05-15T08:06:13.890Z,6
2023-05-15T08:08:13.559Z,6
2023-05-15T08:10:14.126Z,6
2023-05-15T08:12:13.548Z,6
2023-05-15T08:14:13.946Z,4
2023-05-15T08:16:13.879Z,4
2023-05-15T08:18:13.595Z,4
2023-05-15T08:20:13.309Z,6
2023-05-15T08:22:13.893Z,6
2023-05-15T08:24:13.286Z,6
2023-05-15T08:26:13.796Z,6
2023-05-15T08:28:13.423Z,6
2023-05-15T08:30:13.219Z,6
2023-05-15T08:32:13.710Z,7
2023-05-15T08:34:13.350Z,7
2023-05-15T08:36:13.017Z,7
2023-05-15T08:38:13.426Z,7
2023-05-15T08:40:13.155Z,7
2023-05-15T08:42:13.646Z,7
2023-05-15T08:44:13.190Z,6
2023-05-15T08:46:13.685Z,6
2023-05-15T08:48:13.592Z,6
2023-05-15T08:50:13.161Z,6
2023-05-15T08:52:13.649Z,6
2023-05-15T08:54:13.223Z,6
2023-05-15T08:56:13.756Z,4
2023-05-15T08:58:13.410Z,4
2023-05-15T09:00:20.367Z,4
2023-05-15T09:02:14.036Z,7
2023-05-15T09:04:13.736Z,7
2023-05-15T09:06:13.112Z,7
2023-05-15T09:08:13.609Z,7
2023-05-15T09:10:13.452Z,7
2023-05-15T09:12:13.762Z,7
2023-05-15T09:14:13.260Z,6
2023-05-15T09:16:14.035Z,6
2023-05-15T09:18:13.512Z,6
2023-05-15T09:20:13.192Z,7
2023-05-15T09:22:13.738Z,7
2023-05-15T09:24:13.408Z,7
2023-05-15T09:26:13.020Z,6
2023-05-15T09:28:13.626Z,6
2023-05-15T09:30:13.198Z,6
2023-05-15T09:32:13.977Z,4
2023-05-15T09:34:13.244Z,4
2023-05-15T09:36:13.646Z,4
2023-05-15T09:38:13.293Z,6
2023-05-15T09:40:14.025Z,6
2023-05-15T09:42:13.453Z,6
2023-05-15T09:44:12.925Z,7
2023-05-15T09:46:13.753Z,7
2023-05-15T09:48:13.336Z,7
2023-05-15T09:50:13.812Z,6
2023-05-15T09:52:13.473Z,6
2023-05-15T09:54:13.757Z,6
2023-05-15T09:58:13.908Z,6
2023-05-15T10:00:17.136Z,6
2023-05-15T10:02:13.094Z,9
2023-05-15T10:04:13.562Z,9
2023-05-15T10:06:13.375Z,9
2023-05-15T10:08:13.665Z,5
2023-05-15T10:10:13.516Z,5
2023-05-15T10:12:13.796Z,5
2023-05-15T10:14:13.375Z,5
2023-05-15T10:16:14.141Z,5
2023-05-15T10:18:13.993Z,5
2023-05-15T10:20:13.991Z,4
2023-05-15T10:22:13.184Z,4
2023-05-15T10:24:13.528Z,4
2023-05-15T10:26:13.152Z,6
2023-05-15T10:28:13.537Z,6
2023-05-15T10:30:13.318Z,6
2023-05-15T10:32:13.605Z,4
2023-05-15T10:34:13.308Z,4
2023-05-15T10:36:13.753Z,4
2023-05-15T10:38:13.299Z,5
2023-05-15T10:40:13.168Z,5
2023-05-15T10:42:13.938Z,5
2023-05-15T10:44:13.346Z,6
2023-05-15T10:46:13.908Z,6
2023-05-15T10:48:13.866Z,6
2023-05-15T10:50:13.354Z,6
2023-05-15T10:52:13.681Z,6
2023-05-15T10:54:13.381Z,6
2023-05-15T10:56:13.869Z,6
2023-05-15T11:00:16.845Z,6
2023-05-15T11:04:13.928Z,4
2023-05-15T11:06:13.426Z,4
2023-05-15T11:08:13.156Z,6
2023-05-15T11:10:15.835Z,6
2023-05-15T11:14:13.787Z,6
2023-05-15T11:16:14.119Z,6
2023-05-15T11:18:14.209Z,6
2023-05-15T11:20:13.823Z,4
2023-05-15T11:22:13.128Z,4
2023-05-15T11:24:13.668Z,4
2023-05-15T11:26:13.095Z,4
2023-05-15T11:28:13.856Z,4
2023-05-15T11:30:13.746Z,4
2023-05-15T11:32:14.017Z,4
2023-05-15T11:34:13.651Z,4
2023-05-15T11:36:13.241Z,4
2023-05-15T11:38:13.730Z,4
2023-05-15T11:40:13.515Z,4
2023-05-15T11:42:13.015Z,4
2023-05-15T11:44:13.507Z,4
2023-05-15T11:46:14.069Z,4
2023-05-15T11:48:13.969Z,4
2023-05-15T11:50:13.326Z,4
2023-05-15T11:52:12.966Z,4
2023-05-15T11:54:13.497Z,4
2023-05-15T11:56:13.811Z,4
2023-05-15T11:58:13.555Z,4
2023-05-15T12:00:19.005Z,4
2023-05-15T12:02:12.958Z,4
2023-05-15T12:04:14.598Z,4
2023-05-15T12:06:13.277Z,4
2023-05-15T12:08:13.770Z,5
2023-05-15T12:10:13.654Z,5
2023-05-15T12:12:13.197Z,5
2023-05-15T12:14:13.605Z,5
2023-05-15T12:16:13.321Z,5
2023-05-15T12:18:13.964Z,5
2023-05-15T12:20:13.577Z,5
2023-05-15T12:24:16.668Z,5
2023-05-15T12:28:13.998Z,4
2023-05-15T12:30:13.723Z,4
2023-05-15T12:32:13.234Z,3
2023-05-15T12:34:13.787Z,3
2023-05-15T12:38:13.062Z,4
2023-05-15T12:40:13.712Z,4
2023-05-15T12:44:13.533Z,4
2023-05-15T12:46:13.193Z,4
2023-05-15T12:48:13.931Z,4
2023-05-15T12:50:13.373Z,4
2023-05-15T12:52:13.827Z,4
2023-05-15T12:54:13.537Z,4
2023-05-15T12:56:14.033Z,4
2023-05-15T13:00:20.232Z,4
2023-05-15T13:02:13.557Z,2
2023-05-15T13:04:13.049Z,2
2023-05-15T13:06:13.653Z,2
2023-05-15T13:08:13.140Z,6
2023-05-15T13:10:13.755Z,6
2023-05-15T13:12:13.349Z,6
2023-05-15T13:14:13.818Z,4
2023-05-15T13:16:13.502Z,4
2023-05-15T13:18:13.938Z,4
2023-05-15T13:20:13.583Z,4
2023-05-15T13:22:13.935Z,4
2023-05-15T13:24:13.583Z,4
2023-05-15T13:26:13.024Z,3
2023-05-15T13:28:13.683Z,3
2023-05-15T13:30:13.509Z,3
2023-05-15T13:32:13.672Z,2
2023-05-15T13:34:13.379Z,2
2023-05-15T13:36:13.888Z,2
2023-05-15T13:38:13.371Z,3
2023-05-15T13:40:14.135Z,3
2023-05-15T13:42:13.595Z,3
2023-05-15T13:46:13.826Z,3
2023-05-15T13:48:13.349Z,3
2023-05-15T13:50:13.884Z,2
2023-05-15T13:52:13.053Z,2
2023-05-15T13:54:13.675Z,2
2023-05-15T13:56:13.368Z,3
2023-05-15T13:58:13.875Z,3
2023-05-15T14:00:22.332Z,3
2023-05-15T14:02:13.277Z,3
2023-05-15T14:04:13.223Z,3
2023-05-15T14:06:13.578Z,3
2023-05-15T14:08:13.146Z,3
2023-05-15T14:10:13.925Z,3
2023-05-15T14:12:13.423Z,3
2023-05-15T14:14:13.999Z,3
2023-05-15T14:16:13.723Z,3
2023-05-15T14:18:13.353Z,3
2023-05-15T14:20:13.835Z,3
2023-05-15T14:22:13.318Z,3
2023-05-15T14:24:13.918Z,3
2023-05-15T14:26:13.510Z,4
2023-05-15T14:28:13.046Z,4
2023-05-15T14:30:13.714Z,4
2023-05-15T14:32:13.177Z,3
2023-05-15T14:34:13.688Z,3
2023-05-15T14:36:13.208Z,3
2023-05-15T14:38:13.624Z,3
2023-05-15T14:40:13.463Z,3
2023-05-15T14:42:13.738Z,3
2023-05-15T14:44:13.227Z,3
2023-05-15T14:46:14.031Z,3
2023-05-15T14:48:13.547Z,3
2023-05-15T14:50:14.107Z,1
2023-05-15T14:52:13.376Z,1
2023-05-15T14:54:13.842Z,1
2023-05-15T14:58:13.749Z,3
2023-05-15T15:00:17.094Z,3
2023-05-15T15:04:14.116Z,3
2023-05-15T15:06:13.382Z,3
2023-05-15T15:08:13.946Z,4
2023-05-15T15:10:13.709Z,4
2023-05-15T15:12:13.139Z,4
2023-05-15T15:14:13.725Z,3
2023-05-15T15:16:13.238Z,3
2023-05-15T15:18:13.735Z,3
2023-05-15T15:20:13.144Z,3
2023-05-15T15:22:13.557Z,3
2023-05-15T15:24:13.266Z,3
2023-05-15T15:26:13.769Z,4
2023-05-15T15:28:13.370Z,4
2023-05-15T15:30:13.989Z,4
2023-05-15T15:32:13.568Z,3
2023-05-15T15:34:16.738Z,3
2023-05-15T15:38:13.934Z,1
2023-05-15T15:40:13.727Z,1
2023-05-15T15:42:16.105Z,1
2023-05-15T15:44:13.763Z,3
2023-05-15T15:46:13.505Z,3
2023-05-15T15:48:14.001Z,3
2023-05-15T15:50:13.595Z,1
2023-05-15T15:52:13.112Z,1
2023-05-15T15:54:13.749Z,1
2023-05-15T15:56:13.502Z,3
2023-05-15T15:58:13.984Z,3
2023-05-15T16:00:18.967Z,3
2023-05-15T16:02:13.199Z,1
2023-05-15T16:04:13.899Z,1
2023-05-15T16:08:13.788Z,1
2023-05-15T16:10:24.225Z,1
2023-05-15T16:12:13.959Z,1
2023-05-15T16:14:13.287Z,1
2023-05-15T16:18:13.758Z,1
2023-05-15T16:20:13.146Z,3
2023-05-15T16:22:13.683Z,3
2023-05-15T16:24:13.449Z,3
2023-05-15T16:26:13.965Z,1
2023-05-15T16:28:13.410Z,1
2023-05-15T16:30:13.211Z,1
2023-05-15T16:34:15.467Z,1
2023-05-15T16:36:13.863Z,1
2023-05-15T16:38:13.470Z,1
2023-05-15T16:40:14.039Z,1
2023-05-15T16:42:13.566Z,1
2023-05-15T16:44:12.994Z,1
2023-05-15T16:46:13.813Z,1
2023-05-15T16:48:13.369Z,1
2023-05-15T16:52:13.074Z,1
2023-05-15T16:54:13.726Z,1
2023-05-15T16:56:13.278Z,1
2023-05-15T16:58:13.892Z,1
2023-05-15T17:00:19.714Z,1
2023-05-15T17:02:13.696Z,3
2023-05-15T17:04:13.246Z,3
2023-05-15T17:06:13.620Z,3
2023-05-15T17:08:13.321Z,3
2023-05-15T17:12:13.398Z,3
2023-05-15T17:14:13.988Z,3
2023-05-15T17:16:13.439Z,3
2023-05-15T17:18:13.188Z,3
2023-05-15T17:20:14.975Z,1
2023-05-15T17:22:13.066Z,1
2023-05-15T17:24:13.413Z,1
2023-05-15T17:28:13.473Z,1
2023-05-15T17:30:14.277Z,1
2023-05-15T17:32:13.901Z,0
2023-05-15T17:34:13.166Z,0
2023-05-15T17:36:13.745Z,0
2023-05-15T17:38:13.367Z,1
2023-05-15T17:40:13.192Z,1
2023-05-15T17:42:13.623Z,1
2023-05-15T17:44:13.128Z,1
2023-05-15T17:46:13.794Z,1
2023-05-15T17:48:13.364Z,1
2023-05-15T17:50:13.787Z,1
2023-05-15T17:52:13.428Z,1
2023-05-15T17:54:13.776Z,1
2023-05-15T17:56:13.410Z,0
2023-05-15T17:58:12.955Z,0
2023-05-15T18:00:16.512Z,0
2023-05-15T18:04:14.019Z,1
2023-05-15T18:06:13.416Z,1
2023-05-15T18:08:13.775Z,0
2023-05-15T18:10:13.614Z,0
2023-05-15T18:12:13.884Z,0
2023-05-15T18:14:13.613Z,0
2023-05-15T18:18:13.948Z,0
2023-05-15T18:20:13.387Z,1
2023-05-15T18:24:13.487Z,1
2023-05-15T18:26:13.859Z,1
2023-05-15T18:28:13.491Z,1
2023-05-15T18:30:14.138Z,1
2023-05-15T18:32:13.865Z,0
2023-05-15T18:34:13.455Z,0
2023-05-15T18:36:15.598Z,0
2023-05-15T18:38:13.314Z,3
2023-05-15T18:40:14.040Z,3
2023-05-15T18:42:13.596Z,3
2023-05-15T18:44:13.071Z,1
2023-05-15T18:46:13.519Z,1
2023-05-15T18:48:13.211Z,1
2023-05-15T18:50:13.834Z,1
2023-05-15T18:52:13.223Z,1
2023-05-15T18:54:13.634Z,1
2023-05-15T18:56:13.170Z,1
2023-05-15T18:58:13.769Z,1
2023-05-15T19:00:26.610Z,1
2023-05-15T19:02:13.137Z,0
2023-05-15T19:04:13.616Z,0
2023-05-15T19:06:13.160Z,0
2023-05-15T19:08:13.587Z,0
2023-05-15T19:10:13.548Z,0
2023-05-15T19:14:13.586Z,0
2023-05-15T19:16:13.246Z,0
2023-05-15T19:18:13.906Z,0
2023-05-15T19:20:13.372Z,0
2023-05-15T19:22:13.777Z,0
2023-05-15T19:24:13.472Z,0
2023-05-15T19:26:13.076Z,0
2023-05-15T19:28:13.556Z,0
2023-05-15T19:30:13.339Z,0
2023-05-15T19:32:13.789Z,0
2023-05-15T19:34:13.286Z,0
2023-05-15T19:38:13.513Z,0
2023-05-15T19:40:13.311Z,0
2023-05-15T19:42:13.719Z,0
2023-05-15T19:44:13.531Z,0
2023-05-15T19:46:13.158Z,0
2023-05-15T19:48:13.733Z,0
2023-05-15T19:50:13.396Z,0
2023-05-15T19:52:13.893Z,0
2023-05-15T19:54:13.725Z,0
2023-05-15T19:56:13.084Z,0
2023-05-15T19:58:13.649Z,0
2023-05-15T20:00:17.192Z,0
2023-05-15T20:04:13.430Z,0
2023-05-15T20:06:13.191Z,0
2023-05-15T20:08:13.734Z,0
2023-05-15T20:10:13.440Z,0
2023-05-15T20:12:15.950Z,0
2023-05-15T20:14:13.850Z,0
2023-05-15T20:16:13.369Z,0
2023-05-15T20:18:13.820Z,0
2023-05-15T20:20:13.410Z,0
2023-05-15T20:22:13.949Z,0
2023-05-15T20:24:13.573Z,0
2023-05-15T20:26:13.043Z,0
2023-05-15T20:28:13.748Z,0
2023-05-15T20:30:13.292Z,0
2023-05-15T20:32:14.073Z,0
2023-05-15T20:34:13.336Z,0
2023-05-15T20:36:13.876Z,0
2023-05-15T20:38:13.326Z,0
2023-05-15T20:40:14.073Z,0
2023-05-15T20:42:13.624Z,0
2023-05-15T20:44:13.052Z,0
2023-05-15T20:46:13.749Z,0
2023-05-15T20:50:13.754Z,0
2023-05-15T20:52:13.243Z,0
2023-05-15T20:54:13.891Z,0
2023-05-15T20:56:13.558Z,0
2023-05-15T20:58:13.219Z,0
2023-05-15T21:00:18.560Z,0
2023-05-15T21:02:13.310Z,0
2023-05-15T21:04:13.182Z,0
2023-05-15T21:06:13.354Z,0
2023-05-15T21:08:13.795Z,0
2023-05-15T21:10:13.588Z,0
2023-05-15T21:12:13.115Z,0
2023-05-15T21:14:13.742Z,0
2023-05-15T21:16:13.232Z,0
2023-05-15T21:18:13.677Z,0
2023-05-15T21:20:13.319Z,0
2023-05-15T21:22:13.699Z,0
2023-05-15T21:24:13.425Z,0
2023-05-15T21:26:13.854Z,0
2023-05-15T21:28:13.429Z,0
2023-05-15T21:30:14.115Z,0
2023-05-15T21:32:13.602Z,0
2023-05-15T21:34:13.971Z,0
2023-05-15T21:36:13.474Z,0
2023-05-15T21:38:13.268Z,0
2023-05-15T21:40:13.975Z,0
2023-05-15T21:42:13.366Z,0
2023-05-15T21:44:13.818Z,0
2023-05-15T21:46:13.681Z,0
2023-05-15T21:48:13.156Z,0
2023-05-15T21:50:13.757Z,0
2023-05-15T21:52:13.173Z,0
2023-05-15T21:54:13.720Z,0
2023-05-15T21:56:13.181Z,0
2023-05-15T21:58:13.711Z,0
2023-05-15T22:02:13.177Z,0
2023-05-15T22:04:13.857Z,0
2023-05-15T22:06:13.233Z,0
2023-05-15T22:08:13.903Z,0
2023-05-15T22:10:13.582Z,0
2023-05-15T22:12:13.951Z,0
2023-05-15T22:14:13.650Z,0
2023-05-15T22:16:13.332Z,0
2023-05-15T22:18:14.038Z,0
2023-05-15T22:20:13.646Z,0
2023-05-15T22:22:13.126Z,0
2023-05-15T22:24:13.574Z,0
2023-05-15T22:26:13.086Z,0
2023-05-15T22:28:13.652Z,0
2023-05-15T22:30:13.252Z,0
2023-05-15T22:32:13.866Z,0
2023-05-15T22:34:13.166Z,0
2023-05-15T22:36:13.673Z,0
2023-05-15T22:38:13.293Z,0
2023-05-15T22:40:14.166Z,0
2023-05-15T22:42:13.621Z,0
2023-05-15T22:44:13.259Z,0
2023-05-15T22:46:13.704Z,0
2023-05-15T22:48:13.283Z,0
2023-05-15T22:50:13.997Z,0
2023-05-15T22:52:14.053Z,0
2023-05-15T22:54:12.977Z,0
2023-05-15T22:56:13.537Z,0
2023-05-15T22:58:13.149Z,0
2023-05-15T23:00:16.436Z,0
2023-05-15T23:04:13.369Z,0
2023-05-15T23:06:13.709Z,0
2023-05-15T23:08:13.446Z,0
2023-05-15T23:10:14.057Z,0
2023-05-15T23:12:13.708Z,0
2023-05-15T23:14:13.301Z,0
2023-05-15T23:16:14.173Z,0
2023-05-15T23:20:14.142Z,0
2023-05-15T23:22:13.676Z,0
2023-05-15T23:24:13.448Z,0
2023-05-15T23:26:13.965Z,0
2023-05-15T23:28:13.378Z,0
2023-05-15T23:30:14.114Z,0
2023-05-15T23:32:13.536Z,0
2023-05-15T23:34:13.003Z,0
2023-05-15T23:36:13.532Z,0
2023-05-15T23:38:13.127Z,0
2023-05-15T23:40:13.675Z,0
2023-05-15T23:42:13.219Z,0
2023-05-15T23:44:13.794Z,0
2023-05-15T23:46:13.377Z,0
2023-05-15T23:48:13.152Z,0
2023-05-15T23:50:13.607Z,0
2023-05-15T23:52:13.194Z,0
2023-05-15T23:54:13.667Z,0
2023-05-15T23:56:13.312Z,0
2023-05-15T23:58:13.050Z,0
